Terminal Aerodrome Forecast
Issued by NWS

Home | Current Version | Previous Version | Graphics & Text | Print | Product List | Glossary Off
Versions: 1 2 3 4 5 6 7 8 9 10 11 12 13 14 15 16 17 18 19 20 21 22 23 24 25 26 27 28 29 30 31

000
FTUS43 KDDC 311136
TAFGCK
TAF
KGCK 311136Z 3112/0112 19015G22KT P6SM OVC007
      TEMPO 3113/3114 5SM -RA OVC006
     FM311600 19015G22KT 5SM BR OVC010
     FM311800 19015G25KT 6SM BR OVC010
     FM312300 17010KT 5SM BR OVC006
      TEMPO 0101/0105 1SM -RA BR OVC003=

USA.gov is the U.S. government's official web portal to all federal, state and local government web resources and services.